sensor_id;sensor_type;location;lat;lon;timestamp;pressure;altitude;pressure_sealevel;temperature;humidity
50684;BME280;36654;45.042;38.994;2023-03-04T00:00:11;101091.03;;;4.59;56.55
50684;BME280;36654;45.042;38.994;2023-03-04T00:02:36;101080.31;;;4.52;56.41
50684;BME280;36654;45.042;38.994;2023-03-04T00:05:02;101072.31;;;4.49;56.30
50684;BME280;36654;45.042;38.994;2023-03-04T00:07:28;101064.66;;;4.56;56.26
50684;BME280;36654;45.042;38.994;2023-03-04T00:09:54;101067.06;;;4.49;56.02
50684;BME280;36654;45.042;38.994;2023-03-04T00:12:19;101075.28;;;4.59;55.92
50684;BME280;36654;45.042;38.994;2023-03-04T00:14:45;101035.63;;;4.30;55.85
50684;BME280;36654;45.042;38.994;2023-03-04T00:17:10;101071.22;;;4.44;55.92
50684;BME280;36654;45.042;38.994;2023-03-04T00:19:36;101074.78;;;4.46;56.01
50684;BME280;36654;45.042;38.994;2023-03-04T00:22:02;101071.34;;;4.47;56.01
50684;BME280;36654;45.042;38.994;2023-03-04T00:24:28;101056.16;;;4.40;55.95
50684;BME280;36654;45.042;38.994;2023-03-04T00:26:54;101076.63;;;4.49;55.89
50684;BME280;36654;45.042;38.994;2023-03-04T00:29:20;101058.91;;;4.43;55.90
50684;BME280;36654;45.042;38.994;2023-03-04T00:31:46;101051.88;;;4.42;55.87
50684;BME280;36654;45.042;38.994;2023-03-04T00:34:12;101049.94;;;4.38;55.97
50684;BME280;36654;45.042;38.994;2023-03-04T00:36:38;101047.22;;;4.35;55.86
50684;BME280;36654;45.042;38.994;2023-03-04T00:39:03;101041.13;;;4.36;55.79
50684;BME280;36654;45.042;38.994;2023-03-04T00:41:29;101046.38;;;4.36;55.79
50684;BME280;36654;45.042;38.994;2023-03-04T00:43:55;101070.19;;;4.41;55.59
50684;BME280;36654;45.042;38.994;2023-03-04T00:46:20;101060.44;;;4.38;55.55
50684;BME280;36654;45.042;38.994;2023-03-04T00:48:46;101063.00;;;4.37;55.55
50684;BME280;36654;45.042;38.994;2023-03-04T00:51:11;101041.53;;;4.24;55.58
50684;BME280;36654;45.042;38.994;2023-03-04T00:53:37;101051.63;;;4.36;55.49
50684;BME280;36654;45.042;38.994;2023-03-04T00:56:03;101058.53;;;4.34;55.67
50684;BME280;36654;45.042;38.994;2023-03-04T00:58:28;100986.28;;;4.00;55.65
50684;BME280;36654;45.042;38.994;2023-03-04T01:00:54;101048.94;;;4.35;55.77
50684;BME280;36654;45.042;38.994;2023-03-04T01:03:19;101049.84;;;4.35;55.66
50684;BME280;36654;45.042;38.994;2023-03-04T01:05:45;101062.00;;;4.33;56.01
50684;BME280;36654;45.042;38.994;2023-03-04T01:08:11;101044.06;;;4.23;56.40
50684;BME280;36654;45.042;38.994;2023-03-04T01:10:36;101065.31;;;4.29;56.56
50684;BME280;36654;45.042;38.994;2023-03-04T01:13:02;101067.00;;;4.27;56.84
50684;BME280;36654;45.042;38.994;2023-03-04T01:15:28;101055.47;;;4.23;57.03
50684;BME280;36654;45.042;38.994;2023-03-04T01:17:53;101058.16;;;4.25;57.21
50684;BME280;36654;45.042;38.994;2023-03-04T01:20:19;101058.09;;;4.23;57.04
50684;BME280;36654;45.042;38.994;2023-03-04T01:22:45;101051.75;;;4.18;57.38
50684;BME280;36654;45.042;38.994;2023-03-04T01:25:11;101064.78;;;4.17;57.78
50684;BME280;36654;45.042;38.994;2023-03-04T01:27:36;101054.91;;;4.09;57.63
50684;BME280;36654;45.042;38.994;2023-03-04T01:30:03;101070.75;;;4.13;57.74
50684;BME280;36654;45.042;38.994;2023-03-04T01:32:28;101075.16;;;4.14;57.83
50684;BME280;36654;45.042;38.994;2023-03-04T01:34:54;101079.41;;;4.10;57.84
50684;BME280;36654;45.042;38.994;2023-03-04T01:37:20;101045.41;;;3.92;57.67
50684;BME280;36654;45.042;38.994;2023-03-04T01:39:45;101019.47;;;3.79;57.29
50684;BME280;36654;45.042;38.994;2023-03-04T01:42:17;101067.75;;;4.03;56.83
50684;BME280;36654;45.042;38.994;2023-03-04T01:44:44;101094.38;;;4.13;56.42
50684;BME280;36654;45.042;38.994;2023-03-04T01:47:10;101091.81;;;4.14;56.04
50684;BME280;36654;45.042;38.994;2023-03-04T01:49:36;101072.66;;;4.17;55.83
50684;BME280;36654;45.042;38.994;2023-03-04T01:52:02;101063.25;;;4.22;55.67
50684;BME280;36654;45.042;38.994;2023-03-04T01:54:28;101069.34;;;4.21;55.08
50684;BME280;36654;45.042;38.994;2023-03-04T01:56:54;101067.56;;;4.20;54.72
50684;BME280;36654;45.042;38.994;2023-03-04T01:59:22;101018.34;;;3.93;54.39
50684;BME280;36654;45.042;38.994;2023-03-04T02:01:53;101075.69;;;4.26;54.17
50684;BME280;36654;45.042;38.994;2023-03-04T02:06:49;101068.38;;;4.19;53.74
50684;BME280;36654;45.042;38.994;2023-03-04T02:09:15;101095.28;;;4.34;53.75
50684;BME280;36654;45.042;38.994;2023-03-04T02:11:42;101085.63;;;4.33;53.36
50684;BME280;36654;45.042;38.994;2023-03-04T02:14:09;101091.00;;;4.36;53.20
50684;BME280;36654;45.042;38.994;2023-03-04T02:16:35;101083.75;;;4.30;52.96
50684;BME280;36654;45.042;38.994;2023-03-04T02:19:01;101095.28;;;4.34;52.92
50684;BME280;36654;45.042;38.994;2023-03-04T02:21:31;101094.50;;;4.37;52.89
50684;BME280;36654;45.042;38.994;2023-03-04T02:24:21;101099.84;;;4.38;53.25
50684;BME280;36654;45.042;38.994;2023-03-04T02:26:48;101077.50;;;4.27;53.16
50684;BME280;36654;45.042;38.994;2023-03-04T02:29:15;101089.91;;;4.31;53.37
50684;BME280;36654;45.042;38.994;2023-03-04T02:31:51;101103.47;;;4.42;53.64
50684;BME280;36654;45.042;38.994;2023-03-04T02:34:21;101101.75;;;4.42;53.82
50684;BME280;36654;45.042;38.994;2023-03-04T02:36:49;101100.03;;;4.43;53.94
50684;BME280;36654;45.042;38.994;2023-03-04T02:39:43;101096.50;;;4.42;54.21
50684;BME280;36654;45.042;38.994;2023-03-04T02:42:10;101096.56;;;4.44;54.29
50684;BME280;36654;45.042;38.994;2023-03-04T02:44:40;101103.66;;;4.46;54.56
50684;BME280;36654;45.042;38.994;2023-03-04T02:47:09;101106.28;;;4.46;55.01
50684;BME280;36654;45.042;38.994;2023-03-04T02:49:37;101064.78;;;4.17;55.12
50684;BME280;36654;45.042;38.994;2023-03-04T02:54:29;101101.03;;;4.46;55.45
50684;BME280;36654;45.042;38.994;2023-03-04T02:56:58;101101.19;;;4.49;55.53
50684;BME280;36654;45.042;38.994;2023-03-04T02:59:25;101106.44;;;4.49;55.57
50684;BME280;36654;45.042;38.994;2023-03-04T03:01:50;101091.38;;;4.45;55.37
50684;BME280;36654;45.042;38.994;2023-03-04T03:04:17;101086.13;;;4.45;55.27
50684;BME280;36654;45.042;38.994;2023-03-04T03:06:44;101094.91;;;4.46;55.24
50684;BME280;36654;45.042;38.994;2023-03-04T03:09:09;101100.34;;;4.50;55.15
50684;BME280;36654;45.042;38.994;2023-03-04T03:11:35;101080.03;;;4.46;55.15
50684;BME280;36654;45.042;38.994;2023-03-04T03:14:01;101096.28;;;4.59;55.02
50684;BME280;36654;45.042;38.994;2023-03-04T03:16:26;101069.22;;;4.39;54.76
50684;BME280;36654;45.042;38.994;2023-03-04T03:18:52;101102.44;;;4.59;54.72
50684;BME280;36654;45.042;38.994;2023-03-04T03:21:18;101085.16;;;4.43;54.65
50684;BME280;36654;45.042;38.994;2023-03-04T03:23:43;101116.72;;;4.66;54.38
50684;BME280;36654;45.042;38.994;2023-03-04T03:26:09;101122.16;;;4.70;53.86
50684;BME280;36654;45.042;38.994;2023-03-04T03:28:35;101117.81;;;4.71;53.79
50684;BME280;36654;45.042;38.994;2023-03-04T03:31:00;101132.88;;;4.75;53.69
50684;BME280;36654;45.042;38.994;2023-03-04T03:33:26;101130.38;;;4.78;53.67
50684;BME280;36654;45.042;38.994;2023-03-04T03:35:52;101085.56;;;4.52;53.24
50684;BME280;36654;45.042;38.994;2023-03-04T03:38:17;101111.56;;;4.67;53.16
50684;BME280;36654;45.042;38.994;2023-03-04T03:40:43;101145.44;;;4.82;53.23
50684;BME280;36654;45.042;38.994;2023-03-04T03:43:09;101116.25;;;4.76;53.37
50684;BME280;36654;45.042;38.994;2023-03-04T03:45:35;101116.03;;;4.70;53.72
50684;BME280;36654;45.042;38.994;2023-03-04T03:48:01;101127.16;;;4.85;53.75
50684;BME280;36654;45.042;38.994;2023-03-04T03:50:26;101125.50;;;4.87;53.95
50684;BME280;36654;45.042;38.994;2023-03-04T03:52:54;101129.91;;;4.88;54.56
50684;BME280;36654;45.042;38.994;2023-03-04T03:55:20;101105.19;;;4.83;55.11
50684;BME280;36654;45.042;38.994;2023-03-04T03:57:45;101122.09;;;4.90;55.74
50684;BME280;36654;45.042;38.994;2023-03-04T04:00:12;101115.28;;;4.95;56.19
50684;BME280;36654;45.042;38.994;2023-03-04T04:02:38;101075.66;;;4.68;57.20
50684;BME280;36654;45.042;38.994;2023-03-04T04:05:05;101079.38;;;4.73;57.60
50684;BME280;36654;45.042;38.994;2023-03-04T04:07:31;101107.09;;;4.87;58.64
50684;BME280;36654;45.042;38.994;2023-03-04T04:09:57;101136.50;;;5.00;59.09
50684;BME280;36654;45.042;38.994;2023-03-04T04:12:22;101133.03;;;5.01;59.85
50684;BME280;36654;45.042;38.994;2023-03-04T04:14:48;101117.63;;;4.87;60.98
50684;BME280;36654;45.042;38.994;2023-03-04T04:17:14;101143.41;;;4.97;61.07
50684;BME280;36654;45.042;38.994;2023-03-04T04:19:40;101143.41;;;4.97;62.34
50684;BME280;36654;45.042;38.994;2023-03-04T04:22:07;101141.50;;;4.93;62.25
50684;BME280;36654;45.042;38.994;2023-03-04T04:24:37;101147.13;;;4.82;62.92
50684;BME280;36654;45.042;38.994;2023-03-04T04:27:03;101146.41;;;4.84;64.20
50684;BME280;36654;45.042;38.994;2023-03-04T04:29:29;101148.28;;;4.88;64.37
50684;BME280;36654;45.042;38.994;2023-03-04T04:31:54;101144.47;;;4.80;65.16
50684;BME280;36654;45.042;38.994;2023-03-04T04:34:20;101163.28;;;4.91;65.41
50684;BME280;36654;45.042;38.994;2023-03-04T04:36:46;101165.91;;;4.91;66.52
50684;BME280;36654;45.042;38.994;2023-03-04T04:39:11;101168.50;;;4.89;67.35
50684;BME280;36654;45.042;38.994;2023-03-04T04:41:40;101165.72;;;4.86;67.61
50684;BME280;36654;45.042;38.994;2023-03-04T04:44:07;101162.84;;;4.80;68.38
50684;BME280;36654;45.042;38.994;2023-03-04T04:46:33;101156.50;;;4.75;69.30
50684;BME280;36654;45.042;38.994;2023-03-04T04:48:59;101174.31;;;4.82;69.65
50684;BME280;36654;45.042;38.994;2023-03-04T04:51:25;101175.72;;;4.74;70.12
50684;BME280;36654;45.042;38.994;2023-03-04T04:53:50;101178.50;;;4.77;70.76
50684;BME280;36654;45.042;38.994;2023-03-04T04:56:18;101173.81;;;4.70;71.23
50684;BME280;36654;45.042;38.994;2023-03-04T04:58:45;101183.59;;;4.74;72.06
50684;BME280;36654;45.042;38.994;2023-03-04T05:01:11;101188.84;;;4.74;72.78
50684;BME280;36654;45.042;38.994;2023-03-04T05:03:37;101180.72;;;4.68;73.32
50684;BME280;36654;45.042;38.994;2023-03-04T05:06:05;101177.91;;;4.63;74.47
50684;BME280;36654;45.042;38.994;2023-03-04T05:08:31;101156.25;;;4.48;75.01
50684;BME280;36654;45.042;38.994;2023-03-04T05:10:57;101193.78;;;4.66;75.48
50684;BME280;36654;45.042;38.994;2023-03-04T05:13:23;101189.06;;;4.58;76.29
50684;BME280;36654;45.042;38.994;2023-03-04T05:15:53;101199.97;;;4.67;77.05
50684;BME280;36654;45.042;38.994;2023-03-04T05:18:20;101210.38;;;4.65;77.24
50684;BME280;36654;45.042;38.994;2023-03-04T05:20:55;101208.66;;;4.66;78.10
50684;BME280;36654;45.042;38.994;2023-03-04T05:23:21;101207.47;;;4.59;78.40
50684;BME280;36654;45.042;38.994;2023-03-04T05:25:47;101204.94;;;4.61;79.17
50684;BME280;36654;45.042;38.994;2023-03-04T05:28:14;101222.63;;;4.65;79.63
50684;BME280;36654;45.042;38.994;2023-03-04T05:30:40;101223.75;;;4.71;80.05
50684;BME280;36654;45.042;38.994;2023-03-04T05:33:07;101207.69;;;4.64;80.40
50684;BME280;36654;45.042;38.994;2023-03-04T05:35:34;101227.31;;;4.72;80.85
50684;BME280;36654;45.042;38.994;2023-03-04T05:38:01;101209.94;;;4.54;81.34
50684;BME280;36654;45.042;38.994;2023-03-04T05:40:27;101217.28;;;4.63;81.81
50684;BME280;36654;45.042;38.994;2023-03-04T05:42:53;101219.16;;;4.66;82.19
50684;BME280;36654;45.042;38.994;2023-03-04T05:45:18;101197.75;;;4.57;82.53
50684;BME280;36654;45.042;38.994;2023-03-04T05:47:44;101236.97;;;4.73;82.75
50684;BME280;36654;45.042;38.994;2023-03-04T05:50:10;101236.28;;;4.77;82.98
50684;BME280;36654;45.042;38.994;2023-03-04T05:52:36;101251.47;;;4.84;83.15
50684;BME280;36654;45.042;38.994;2023-03-04T05:55:01;101251.31;;;4.81;83.16
50684;BME280;36654;45.042;38.994;2023-03-04T05:57:27;101251.59;;;4.87;83.16
50684;BME280;36654;45.042;38.994;2023-03-04T05:59:52;101257.94;;;4.92;83.47
50684;BME280;36654;45.042;38.994;2023-03-04T06:02:18;101260.28;;;4.86;84.30
50684;BME280;36654;45.042;38.994;2023-03-04T06:04:43;101254.16;;;4.86;84.86
50684;BME280;36654;45.042;38.994;2023-03-04T06:07:09;101257.75;;;4.88;85.12
50684;BME280;36654;45.042;38.994;2023-03-04T06:09:35;101256.00;;;4.88;85.42
50684;BME280;36654;45.042;38.994;2023-03-04T06:12:00;101244.69;;;4.89;85.62
50684;BME280;36654;45.042;38.994;2023-03-04T06:14:26;101265.94;;;4.95;85.35
50684;BME280;36654;45.042;38.994;2023-03-04T06:16:52;101216.06;;;4.76;85.38
50684;BME280;36654;45.042;38.994;2023-03-04T06:19:17;101262.63;;;5.00;85.29
50684;BME280;36654;45.042;38.994;2023-03-04T06:21:43;101260.94;;;5.02;85.36
50684;BME280;36654;45.042;38.994;2023-03-04T06:24:08;101253.81;;;4.99;84.90
50684;BME280;36654;45.042;38.994;2023-03-04T06:26:34;101177.41;;;4.72;84.82
50684;BME280;36654;45.042;38.994;2023-03-04T06:29:00;101236.66;;;5.07;84.81
50684;BME280;36654;45.042;38.994;2023-03-04T06:31:25;101247.50;;;5.15;84.47
50684;BME280;36654;45.042;38.994;2023-03-04T06:33:51;101223.56;;;5.09;84.28
50684;BME280;36654;45.042;38.994;2023-03-04T06:36:16;101256.13;;;5.33;84.02
50684;BME280;36654;45.042;38.994;2023-03-04T06:38:42;101260.28;;;5.28;84.05
50684;BME280;36654;45.042;38.994;2023-03-04T06:41:10;101266.59;;;5.32;83.89
50684;BME280;36654;45.042;38.994;2023-03-04T06:43:37;101251.59;;;5.29;83.76
50684;BME280;36654;45.042;38.994;2023-03-04T06:46:04;101260.56;;;5.34;83.89
50684;BME280;36654;45.042;38.994;2023-03-04T06:48:30;101251.81;;;5.35;83.83
50684;BME280;36654;45.042;38.994;2023-03-04T06:50:56;101222.47;;;5.25;83.81
50684;BME280;36654;45.042;38.994;2023-03-04T06:53:22;101229.00;;;5.34;83.86
50684;BME280;36654;45.042;38.994;2023-03-04T06:55:56;101242.88;;;5.53;83.57
50684;BME280;36654;45.042;38.994;2023-03-04T06:58:32;101251.25;;;5.65;83.75
50684;BME280;36654;45.042;38.994;2023-03-04T07:01:24;101255.06;;;5.73;83.72
50684;BME280;36654;45.042;38.994;2023-03-04T07:03:51;101265.97;;;5.82;83.66
50684;BME280;36654;45.042;38.994;2023-03-04T07:06:19;101260.03;;;5.88;83.12
50684;BME280;36654;45.042;38.994;2023-03-04T07:08:45;101239.00;;;5.88;82.88
50684;BME280;36654;45.042;38.994;2023-03-04T07:11:11;101251.94;;;6.04;82.71
50684;BME280;36654;45.042;38.994;2023-03-04T07:13:37;101245.53;;;5.98;82.40
50684;BME280;36654;45.042;38.994;2023-03-04T07:16:04;101260.84;;;6.08;81.94
50684;BME280;36654;45.042;38.994;2023-03-04T07:18:30;101246.97;;;6.12;81.50
50684;BME280;36654;45.042;38.994;2023-03-04T07:20:55;101251.25;;;6.10;81.26
50684;BME280;36654;45.042;38.994;2023-03-04T07:23:21;101238.81;;;6.06;81.16
50684;BME280;36654;45.042;38.994;2023-03-04T07:25:48;101256.88;;;6.19;81.08
50684;BME280;36654;45.042;38.994;2023-03-04T07:28:14;101257.94;;;6.24;80.95
50684;BME280;36654;45.042;38.994;2023-03-04T07:30:40;101265.16;;;6.30;80.83
50684;BME280;36654;45.042;38.994;2023-03-04T07:33:05;101259.22;;;6.36;80.55
50684;BME280;36654;45.042;38.994;2023-03-04T07:35:31;101237.53;;;6.19;80.22
50684;BME280;36654;45.042;38.994;2023-03-04T07:37:57;101244.78;;;6.24;80.29
50684;BME280;36654;45.042;38.994;2023-03-04T07:40:22;101246.91;;;6.35;80.76
50684;BME280;36654;45.042;38.994;2023-03-04T07:42:49;101256.22;;;6.49;81.02
50684;BME280;36654;45.042;38.994;2023-03-04T07:45:15;101248.44;;;6.54;80.91
50684;BME280;36654;45.042;38.994;2023-03-04T07:47:41;101260.00;;;6.57;80.23
50684;BME280;36654;45.042;38.994;2023-03-04T07:50:07;101258.09;;;6.53;79.64
50684;BME280;36654;45.042;38.994;2023-03-04T07:52:37;101207.84;;;6.23;78.91
50684;BME280;36654;45.042;38.994;2023-03-04T07:55:03;101250.09;;;6.50;78.75
50684;BME280;36654;45.042;38.994;2023-03-04T07:57:29;101267.06;;;6.58;78.67
50684;BME280;36654;45.042;38.994;2023-03-04T07:59:54;101252.09;;;6.57;77.69
50684;BME280;36654;45.042;38.994;2023-03-04T08:02:20;101253.69;;;6.52;77.92
50684;BME280;36654;45.042;38.994;2023-03-04T08:04:46;101231.81;;;6.55;78.18
50684;BME280;36654;45.042;38.994;2023-03-04T08:07:11;101254.84;;;6.60;77.97
50684;BME280;36654;45.042;38.994;2023-03-04T08:09:37;101229.88;;;6.49;77.35
50684;BME280;36654;45.042;38.994;2023-03-04T08:12:03;101208.38;;;6.37;77.54
50684;BME280;36654;45.042;38.994;2023-03-04T08:14:28;101230.97;;;6.56;77.66
50684;BME280;36654;45.042;38.994;2023-03-04T08:16:54;101250.09;;;6.76;77.43
50684;BME280;36654;45.042;38.994;2023-03-04T08:19:19;101213.56;;;6.61;77.11
50684;BME280;36654;45.042;38.994;2023-03-04T08:21:45;101164.22;;;6.30;76.69
50684;BME280;36654;45.042;38.994;2023-03-04T08:24:11;101255.00;;;6.90;76.42
50684;BME280;36654;45.042;38.994;2023-03-04T08:26:39;101258.00;;;7.01;76.11
50684;BME280;36654;45.042;38.994;2023-03-04T08:29:06;101238.63;;;6.99;75.60
50684;BME280;36654;45.042;38.994;2023-03-04T08:31:32;101235.94;;;6.98;75.06
50684;BME280;36654;45.042;38.994;2023-03-04T08:33:58;101246.00;;;7.09;75.04
50684;BME280;36654;45.042;38.994;2023-03-04T08:36:24;101253.28;;;7.17;75.13
50684;BME280;36654;45.042;38.994;2023-03-04T08:38:50;101240.22;;;7.21;74.75
50684;BME280;36654;45.042;38.994;2023-03-04T08:41:15;101239.97;;;7.13;74.34
50684;BME280;36654;45.042;38.994;2023-03-04T08:43:42;101247.06;;;7.16;74.56
50684;BME280;36654;45.042;38.994;2023-03-04T08:46:07;101239.06;;;7.13;74.69
50684;BME280;36654;45.042;38.994;2023-03-04T08:48:33;101239.41;;;7.24;74.48
50684;BME280;36654;45.042;38.994;2023-03-04T08:50:59;101221.41;;;7.10;74.46
50684;BME280;36654;45.042;38.994;2023-03-04T08:53:24;101247.06;;;7.16;74.58
50684;BME280;36654;45.042;38.994;2023-03-04T08:55:51;101252.41;;;7.18;74.74
50684;BME280;36654;45.042;38.994;2023-03-04T08:58:17;101210.56;;;7.01;74.93
50684;BME280;36654;45.042;38.994;2023-03-04T09:00:45;101240.72;;;7.09;75.13
50684;BME280;36654;45.042;38.994;2023-03-04T09:03:13;101223.78;;;7.03;75.41
50684;BME280;36654;45.042;38.994;2023-03-04T09:05:39;101233.78;;;7.11;75.55
50684;BME280;36654;45.042;38.994;2023-03-04T09:08:06;101250.50;;;7.13;75.42
50684;BME280;36654;45.042;38.994;2023-03-04T09:10:32;101240.88;;;7.14;74.91
50684;BME280;36654;45.042;38.994;2023-03-04T09:12:58;101249.63;;;7.13;74.82
50684;BME280;36654;45.042;38.994;2023-03-04T09:15:23;101232.81;;;7.09;75.06
50684;BME280;36654;45.042;38.994;2023-03-04T09:17:52;101229.47;;;7.15;74.86
50684;BME280;36654;45.042;38.994;2023-03-04T09:20:20;101192.63;;;6.89;74.68
50684;BME280;36654;45.042;38.994;2023-03-04T09:22:49;101232.19;;;7.17;75.05
50684;BME280;36654;45.042;38.994;2023-03-04T09:25:14;101207.25;;;7.07;75.15
50684;BME280;36654;45.042;38.994;2023-03-04T09:27:40;101218.78;;;7.10;75.33
50684;BME280;36654;45.042;38.994;2023-03-04T09:30:07;101231.41;;;7.21;75.32
50684;BME280;36654;45.042;38.994;2023-03-04T09:32:34;101225.50;;;7.28;75.24
50684;BME280;36654;45.042;38.994;2023-03-04T09:35:00;101226.53;;;7.33;75.55
50684;BME280;36654;45.042;38.994;2023-03-04T09:37:26;101222.03;;;7.29;75.68
50684;BME280;36654;45.042;38.994;2023-03-04T09:39:51;101159.63;;;7.02;75.26
50684;BME280;36654;45.042;38.994;2023-03-04T09:42:25;101219.63;;;7.37;75.26
50684;BME280;36654;45.042;38.994;2023-03-04T09:44:52;101232.13;;;7.42;75.70
50684;BME280;36654;45.042;38.994;2023-03-04T09:47:19;101209.97;;;7.37;75.59
50684;BME280;36654;45.042;38.994;2023-03-04T09:49:55;101214.28;;;7.35;75.65
50684;BME280;36654;45.042;38.994;2023-03-04T09:55:30;101176.84;;;7.18;75.75
50684;BME280;36654;45.042;38.994;2023-03-04T09:58:43;101199.28;;;7.32;75.83
50684;BME280;36654;45.042;38.994;2023-03-04T10:01:51;101206.38;;;7.35;76.02
50684;BME280;36654;45.042;38.994;2023-03-04T10:06:56;101192.25;;;7.33;76.32
50684;BME280;36654;45.042;38.994;2023-03-04T10:09:29;101202.22;;;7.42;76.34
50684;BME280;36654;45.042;38.994;2023-03-04T10:14:43;101188.66;;;7.31;76.49
50684;BME280;36654;45.042;38.994;2023-03-04T10:17:35;101184.56;;;7.41;76.61
50684;BME280;36654;45.042;38.994;2023-03-04T10:20:19;101142.97;;;7.03;76.74
50684;BME280;36654;45.042;38.994;2023-03-04T10:22:48;101175.84;;;7.43;76.45
50684;BME280;36654;45.042;38.994;2023-03-04T10:25:20;101180.44;;;7.49;76.34
50684;BME280;36654;45.042;38.994;2023-03-04T10:27:57;101181.34;;;7.49;76.21
50684;BME280;36654;45.042;38.994;2023-03-04T10:31:02;101168.94;;;7.47;76.02
50684;BME280;36654;45.042;38.994;2023-03-04T10:33:33;101164.50;;;7.46;76.14
50684;BME280;36654;45.042;38.994;2023-03-04T10:38:39;101166.97;;;7.40;75.81
50684;BME280;36654;45.042;38.994;2023-03-04T10:41:18;101164.34;;;7.41;75.71
50684;BME280;36654;45.042;38.994;2023-03-04T10:43:50;101149.22;;;7.34;75.46
50684;BME280;36654;45.042;38.994;2023-03-04T10:46:24;101135.25;;;7.38;75.22
50684;BME280;36654;45.042;38.994;2023-03-04T10:48:51;101135.47;;;7.44;75.17
50684;BME280;36654;45.042;38.994;2023-03-04T10:51:25;101134.81;;;7.53;74.94
50684;BME280;36654;45.042;38.994;2023-03-04T10:54:22;101130.63;;;7.60;74.60
50684;BME280;36654;45.042;38.994;2023-03-04T10:56:58;101106.63;;;7.50;74.52
50684;BME280;36654;45.042;38.994;2023-03-04T11:02:19;101130.53;;;7.87;74.13
50684;BME280;36654;45.042;38.994;2023-03-04T11:05:04;101136.19;;;8.00;73.83
50684;BME280;36654;45.042;38.994;2023-03-04T11:07:31;101125.03;;;8.11;73.82
50684;BME280;36654;45.042;38.994;2023-03-04T11:10:23;101111.94;;;8.14;73.49
50684;BME280;36654;45.042;38.994;2023-03-04T11:13:00;101125.41;;;8.25;73.72
50684;BME280;36654;45.042;38.994;2023-03-04T11:15:28;101131.66;;;8.28;73.55
50684;BME280;36654;45.042;38.994;2023-03-04T11:18:04;101124.53;;;8.24;73.32
50684;BME280;36654;45.042;38.994;2023-03-04T11:20:32;101129.63;;;8.16;73.39
50684;BME280;36654;45.042;38.994;2023-03-04T11:23:11;101105.38;;;7.99;73.24
50684;BME280;36654;45.042;38.994;2023-03-04T11:25:46;101120.63;;;8.10;73.83
50684;BME280;36654;45.042;38.994;2023-03-04T11:28:20;101127.53;;;8.05;73.55
50684;BME280;36654;45.042;38.994;2023-03-04T11:33:21;101122.84;;;7.94;74.16
50684;BME280;36654;45.042;38.994;2023-03-04T11:35:54;101116.69;;;7.95;74.16
50684;BME280;36654;45.042;38.994;2023-03-04T11:38:35;101121.22;;;7.99;74.49
50684;BME280;36654;45.042;38.994;2023-03-04T11:43:42;101116.88;;;8.02;74.88
50684;BME280;36654;45.042;38.994;2023-03-04T11:51:48;101065.38;;;7.84;75.61
50684;BME280;36654;45.042;38.994;2023-03-04T12:22:43;101073.41;;;8.22;72.19
50684;BME280;36654;45.042;38.994;2023-03-04T12:31:23;101039.13;;;7.90;71.01
50684;BME280;36654;45.042;38.994;2023-03-04T12:36:59;101022.31;;;7.87;71.81
50684;BME280;36654;45.042;38.994;2023-03-04T12:39:32;101087.38;;;8.18;71.76
50684;BME280;36654;45.042;38.994;2023-03-04T12:48:03;101083.66;;;8.10;71.68
50684;BME280;36654;45.042;38.994;2023-03-04T12:50:39;101095.97;;;8.11;71.54
50684;BME280;36654;45.042;38.994;2023-03-04T12:53:09;101081.09;;;8.13;71.43
50684;BME280;36654;45.042;38.994;2023-03-04T12:55:41;101087.31;;;8.15;71.38
50684;BME280;36654;45.042;38.994;2023-03-04T12:58:20;101078.50;;;8.16;71.53
50684;BME280;36654;45.042;38.994;2023-03-04T13:01:05;101056.44;;;8.12;71.22
50684;BME280;36654;45.042;38.994;2023-03-04T13:03:56;101075.03;;;8.17;71.09
50684;BME280;36654;45.042;38.994;2023-03-04T13:09:57;101078.75;;;8.25;70.49
50684;BME280;36654;45.042;38.994;2023-03-04T13:12:25;101063.81;;;8.26;70.49
50684;BME280;36654;45.042;38.994;2023-03-04T13:25:35;101031.53;;;8.03;70.96
50684;BME280;36654;45.042;38.994;2023-03-04T13:32:57;101014.06;;;8.08;70.81
50684;BME280;36654;45.042;38.994;2023-03-04T13:41:21;101064.94;;;8.35;71.45
50684;BME280;36654;45.042;38.994;2023-03-04T13:44:01;101063.09;;;8.31;71.41
50684;BME280;36654;45.042;38.994;2023-03-04T13:46:29;101061.28;;;8.30;71.45
50684;BME280;36654;45.042;38.994;2023-03-04T13:49:01;101048.78;;;8.23;71.82
50684;BME280;36654;45.042;38.994;2023-03-04T13:51:38;101044.38;;;8.24;71.84
50684;BME280;36654;45.042;38.994;2023-03-04T13:54:30;100989.13;;;7.96;71.98
50684;BME280;36654;45.042;38.994;2023-03-04T13:59:33;101053.22;;;8.24;72.24
50684;BME280;36654;45.042;38.994;2023-03-04T14:04:45;101011.41;;;8.08;72.55
50684;BME280;36654;45.042;38.994;2023-03-04T14:07:26;101050.59;;;8.24;72.65
50684;BME280;36654;45.042;38.994;2023-03-04T14:12:44;101039.91;;;8.21;72.93
50684;BME280;36654;45.042;38.994;2023-03-04T14:17:47;101040.78;;;8.20;73.10
50684;BME280;36654;45.042;38.994;2023-03-04T14:22:49;101034.50;;;8.15;73.61
50684;BME280;36654;45.042;38.994;2023-03-04T14:25:22;100987.94;;;7.85;73.83
50684;BME280;36654;45.042;38.994;2023-03-04T14:27:49;101022.97;;;8.13;74.11
50684;BME280;36654;45.042;38.994;2023-03-04T14:32:46;100988.13;;;7.91;74.21
50684;BME280;36654;45.042;38.994;2023-03-04T14:35:21;101034.41;;;8.12;74.45
50684;BME280;36654;45.042;38.994;2023-03-04T14:37:53;101023.84;;;8.12;74.45
50684;BME280;36654;45.042;38.994;2023-03-04T14:40:29;101029.06;;;8.09;74.67
50684;BME280;36654;45.042;38.994;2023-03-04T14:43:03;101020.16;;;8.05;74.62
50684;BME280;36654;45.042;38.994;2023-03-04T14:45:30;101021.91;;;8.06;74.79
50684;BME280;36654;45.042;38.994;2023-03-04T14:48:04;101008.50;;;7.97;74.73
50684;BME280;36654;45.042;38.994;2023-03-04T14:50:31;101021.13;;;8.09;74.84